Skip to main content.
Our real time weather data display below is updated continuously via our 24/7 live data feed.
 TIME   TEMPERATURE   WINDSPEED   DIRECTION   HUMIDITY   BAROMETER   RAINFALL 
5:40 24.0°C (75.2°F) 7.4 kmh (4.6 mph) W 69% 1015.9hPa (30.00 inHg) 0.0mm (0.00 in.)
4:40 24.0°C (75.2 °F) 9.3 kmh (5.8 mph) WNW 78% 1015.9hPa (30.00 inHg) 0.0mm (0.00 in.)
3:40 24.0°C (75.2 °F) 9.3 kmh (5.8 mph) NW 69% 1015.9hPa (30.00 inHg) 0.0mm (0.00 in.)
2:40 24.0°C (75.2 °F) 7.4 kmh (4.6 mph) NW 69% 1015.9hPa (30.00 inHg) 0.0mm (0.00 in.)
1:40 24.0°C (75.2 °F) 7.4 kmh (4.6 mph) W 73% 1015.9hPa (30.00 inHg) 0.0mm (0.00 in.)
0:40 25.0°C (77.0 °F) 7.4 kmh (4.6 mph) NW 69% 1016.9hPa (30.03 inHg) 0.0mm (0.00 in.)
23:40 25.0°C (77.0 °F) 7.4 kmh (4.6 mph) WNW 73% 1016.9hPa (30.03 inHg) 0.0mm (0.00 in.)
22:40 26.0°C (78.8 °F) 9.3 kmh (5.8 mph) NW 61% 1016.9hPa (30.03 inHg) 0.0mm (0.00 in.)
21:40 27.0°C (80.6 °F) 7.4 kmh (4.6 mph) E 69% 1015.9hPa (30.00 inHg) 0.0mm (0.00 in.)
20:40 28.0°C (82.4 °F) 9.3 kmh (5.8 mph) E 65% 1015.9hPa (30.00 inHg) 0.0mm (0.00 in.)
19:40 30.0°C (86.0 °F) 11.1 kmh (6.9 mph) E 58% 1015.9hPa (30.00 inHg) 0.0mm (0.00 in.)
18:40 31.0°C (87.8 °F) 7.4 kmh (4.6 mph) E 55% 1015.9hPa (30.00 inHg) 0.0mm (0.00 in.)
17:40 31.0°C (87.8 °F) 14.8 kmh (9.2 mph) ENE 52% 1015.9hPa (30.00 inHg) 0.0mm (0.00 in.)
16:40 32.0°C (89.6 °F) 14.8 kmh (9.2 mph) ENE 49% 1015.9hPa (30.00 inHg) 0.0mm (0.00 in.)
15:40 34.0°C (93.2 °F) 11.1 kmh (6.9 mph) W 34% 1015.9hPa (30.00 inHg) 0.0mm (0.00 in.)
14:40 33.0°C (91.4 °F) 13.0 kmh (8.1 mph) NW 36% 1016.9hPa (30.03 inHg) 0.0mm (0.00 in.)
13:40 32.0°C (89.6 °F) 14.8 kmh (9.2 mph) WNW 38% 1016.9hPa (30.03 inHg) 0.0mm (0.00 in.)
12:40 32.0°C (89.6 °F) 16.7 kmh (10.4 mph) NNW 43% 1016.9hPa (30.03 inHg) 0.0mm (0.00 in.)
11:40 31.0°C (87.8 °F) 16.7 kmh (10.4 mph) NW 45% 1016.9hPa (30.03 inHg) 0.0mm (0.00 in.)
10:40 31.0°C (87.8 °F) 14.8 kmh (9.2 mph) NW 43% 1016.9hPa (30.03 inHg) 0.0mm (0.00 in.)
9:40 29.0°C (84.2 °F) 13.0 kmh (8.1 mph) NW 58% 1016.9hPa (30.03 inHg) 0.0mm (0.00 in.)
8:40 27.0°C (80.6 °F) 9.3 kmh (5.8 mph) NNW 74% 1016.9hPa (30.03 inHg) 0.0mm (0.00 in.)
7:40 24.0°C (75.2 °F) 7.4 kmh (4.6 mph) NW 83% 1015.9hPa (30.00 inHg) 0.0mm (0.00 in.)
6:40 23.0°C (73.4 °F) 3.7 kmh (2.3 mph) WNW 83% 1015.9hPa (30.00 inHg) 0.0mm (0.00 in.)